createdAt,value
2018-12-06T00:00:35.592Z,73.50
2018-12-06T00:03:05.035Z,73.60
2018-12-06T00:05:34.088Z,73.40
2018-12-06T00:08:15.809Z,72.80
2018-12-06T00:10:44.882Z,73.10
2018-12-06T00:13:14.594Z,73.70
2018-12-06T00:15:44.799Z,72.30
2018-12-06T00:18:14.636Z,72.00
2018-12-06T00:20:44.111Z,71.30
2018-12-06T00:23:13.155Z,71.50
2018-12-06T00:25:42.192Z,71.60
2018-12-06T00:28:11.583Z,71.30
2018-12-06T00:30:40.721Z,71.30
2018-12-06T00:33:10.167Z,71.60
2018-12-06T00:35:39.845Z,70.60
2018-12-06T00:38:09.664Z,71.10
2018-12-06T00:40:39.171Z,71.70
2018-12-06T00:43:08.354Z,71.00
2018-12-06T00:45:37.415Z,70.70
2018-12-06T00:48:06.536Z,70.50
2018-12-06T00:50:35.555Z,71.20
2018-12-06T00:53:05.044Z,71.30
2018-12-06T00:55:34.723Z,70.90
2018-12-06T00:58:04.381Z,71.30
2018-12-06T01:00:34.048Z,71.30
2018-12-06T01:03:03.476Z,72.10
2018-12-06T01:05:32.939Z,71.10
2018-12-06T01:08:02.489Z,71.50
2018-12-06T01:10:32.935Z,71.10
2018-12-06T01:13:02.515Z,70.80
2018-12-06T01:15:31.603Z,70.70
2018-12-06T01:18:00.661Z,71.40
2018-12-06T01:20:30.170Z,70.40
2018-12-06T01:22:59.463Z,70.30
2018-12-06T01:25:29.713Z,70.50
2018-12-06T01:27:58.768Z,70.20
2018-12-06T01:30:28.796Z,70.30
2018-12-06T01:32:57.870Z,70.60
2018-12-06T01:35:27.502Z,71.20
2018-12-06T01:37:56.591Z,71.20
2018-12-06T01:40:26.143Z,70.80
2018-12-06T01:42:56.063Z,70.40
2018-12-06T01:45:25.092Z,70.00
2018-12-06T01:47:54.160Z,69.70
2018-12-06T01:50:23.183Z,70.10
2018-12-06T01:52:52.494Z,69.90
2018-12-06T01:55:21.519Z,69.80
2018-12-06T01:57:50.642Z,70.10
2018-12-06T02:00:20.075Z,70.20
2018-12-06T02:02:49.917Z,69.90
2018-12-06T02:05:19.013Z,70.00
2018-12-06T02:07:48.141Z,71.40
2018-12-06T02:10:17.850Z,70.30
2018-12-06T02:12:47.280Z,69.90
2018-12-06T02:15:16.339Z,70.20
2018-12-06T02:17:45.386Z,70.20
2018-12-06T02:20:15.640Z,70.80
2018-12-06T02:22:44.991Z,70.70
2018-12-06T02:25:14.248Z,70.00
2018-12-06T02:27:43.270Z,70.60
2018-12-06T02:30:12.504Z,69.50
2018-12-06T02:32:41.905Z,69.50
2018-12-06T02:35:11.133Z,69.70
2018-12-06T02:37:40.250Z,69.50
2018-12-06T02:40:09.812Z,69.50
2018-12-06T02:42:39.308Z,69.40
2018-12-06T02:45:08.330Z,69.20
2018-12-06T02:47:37.787Z,69.30
2018-12-06T02:50:07.549Z,69.10
2018-12-06T02:52:36.624Z,69.40
2018-12-06T02:55:05.680Z,69.10
2018-12-06T02:57:34.765Z,68.80
2018-12-06T03:00:03.873Z,68.40
2018-12-06T03:02:33.066Z,68.80
2018-12-06T03:05:02.216Z,68.30
2018-12-06T03:07:31.279Z,68.20
2018-12-06T03:10:00.476Z,68.50
2018-12-06T03:12:30.191Z,68.30
2018-12-06T03:14:59.339Z,68.30
2018-12-06T03:17:28.411Z,68.00
2018-12-06T03:19:57.461Z,67.70
2018-12-06T03:22:26.491Z,67.60
2018-12-06T03:24:55.556Z,67.40
2018-12-06T03:27:24.636Z,67.20
2018-12-06T03:29:53.730Z,66.80
2018-12-06T03:32:22.995Z,67.40
2018-12-06T03:34:52.122Z,66.20
2018-12-06T03:37:21.325Z,66.40
2018-12-06T03:39:51.017Z,65.50
2018-12-06T03:42:21.247Z,64.80
2018-12-06T03:44:50.276Z,64.90
2018-12-06T03:47:19.678Z,64.10
2018-12-06T03:49:49.816Z,64.80
2018-12-06T03:52:20.160Z,63.90
2018-12-06T03:54:49.222Z,63.80
2018-12-06T03:57:18.288Z,63.60
2018-12-06T03:59:48.889Z,62.60
2018-12-06T04:02:18.563Z,62.40
2018-12-06T04:04:47.698Z,62.50
2018-12-06T04:07:16.743Z,62.30
2018-12-06T04:09:46.291Z,62.00
2018-12-06T04:12:15.317Z,62.20
2018-12-06T04:14:45.411Z,61.90
2018-12-06T04:17:14.446Z,61.30
2018-12-06T04:19:43.921Z,60.80
2018-12-06T04:22:13.768Z,60.80
2018-12-06T04:24:42.845Z,60.30
2018-12-06T04:27:12.174Z,60.40
2018-12-06T04:29:41.216Z,58.90
2018-12-06T04:32:11.215Z,59.20
2018-12-06T04:34:40.927Z,58.90
2018-12-06T04:37:10.085Z,59.30
2018-12-06T04:39:39.136Z,58.40
2018-12-06T04:42:08.163Z,58.70
2018-12-06T04:44:37.484Z,58.40
2018-12-06T04:47:07.520Z,58.30
2018-12-06T04:49:37.119Z,57.80
2018-12-06T04:52:06.280Z,58.30
2018-12-06T04:54:35.837Z,58.30
2018-12-06T04:57:05.736Z,58.70
2018-12-06T04:59:35.174Z,58.10
2018-12-06T05:02:05.013Z,58.50
2018-12-06T05:04:34.127Z,58.30
2018-12-06T05:07:03.210Z,58.10
2018-12-06T05:09:32.263Z,58.00
2018-12-06T05:12:01.344Z,58.50
2018-12-06T05:14:30.610Z,58.20
2018-12-06T05:16:59.739Z,58.20
2018-12-06T05:19:28.907Z,58.30
2018-12-06T05:21:59.143Z,58.40
2018-12-06T05:24:28.345Z,58.10
2018-12-06T05:26:57.731Z,57.90
2018-12-06T05:29:27.050Z,57.90
2018-12-06T05:31:56.168Z,57.50
2018-12-06T05:34:25.247Z,57.70
2018-12-06T05:36:54.575Z,57.30
2018-12-06T05:39:23.672Z,56.80
2018-12-06T05:41:53.946Z,56.30
2018-12-06T05:44:23.327Z,56.30
2018-12-06T05:46:52.477Z,56.30
2018-12-06T05:49:22.290Z,56.30
2018-12-06T05:51:52.111Z,56.30
2018-12-06T05:54:21.165Z,56.50
2018-12-06T05:56:50.516Z,56.30
2018-12-06T05:59:19.967Z,56.30
2018-12-06T06:01:49.036Z,55.80
2018-12-06T06:04:18.365Z,55.70
2018-12-06T06:06:47.715Z,56.30
2018-12-06T06:09:16.836Z,56.30
2018-12-06T06:11:45.899Z,56.30
2018-12-06T06:14:15.778Z,56.30
2018-12-06T06:16:44.856Z,56.90
2018-12-06T06:19:13.875Z,55.60
2018-12-06T06:21:43.112Z,55.60
2018-12-06T06:24:12.171Z,55.70
2018-12-06T06:26:41.238Z,54.90
2018-12-06T06:29:10.327Z,55.20
2018-12-06T06:31:39.977Z,54.90
2018-12-06T06:34:09.028Z,54.30
2018-12-06T06:36:38.186Z,54.60
2018-12-06T06:39:07.800Z,54.70
2018-12-06T06:41:36.888Z,54.30
2018-12-06T06:44:06.025Z,54.60
2018-12-06T06:46:35.059Z,55.10
2018-12-06T06:49:04.144Z,55.00
2018-12-06T06:51:33.290Z,54.50
2018-12-06T06:54:02.419Z,54.60
2018-12-06T06:56:32.134Z,54.60
2018-12-06T06:59:01.636Z,54.90
2018-12-06T07:01:30.692Z,55.10
2018-12-06T07:04:00.123Z,56.10
2018-12-06T07:06:30.138Z,56.40
2018-12-06T07:08:59.395Z,56.40
2018-12-06T07:11:28.497Z,56.00
2018-12-06T07:13:57.511Z,56.40
2018-12-06T07:16:26.668Z,56.40
2018-12-06T07:18:56.123Z,56.30
2018-12-06T07:21:25.854Z,56.40
2018-12-06T07:23:56.124Z,57.00
2018-12-06T07:26:25.197Z,56.40
2018-12-06T07:28:54.253Z,56.40
2018-12-06T07:31:23.965Z,56.40
2018-12-06T07:33:53.530Z,55.90
2018-12-06T07:36:22.571Z,56.40
2018-12-06T07:38:53.256Z,56.40
2018-12-06T07:41:22.303Z,56.40
2018-12-06T07:43:55.043Z,56.40
2018-12-06T07:46:24.062Z,56.40
2018-12-06T07:48:54.060Z,56.50
2018-12-06T07:51:23.083Z,56.30
2018-12-06T07:53:52.964Z,56.40
2018-12-06T07:56:22.496Z,55.10
2018-12-06T07:58:52.259Z,55.40
2018-12-06T08:01:21.663Z,55.90
2018-12-06T08:03:50.755Z,54.90
2018-12-06T08:06:19.814Z,55.10
2018-12-06T08:08:48.823Z,55.00
2018-12-06T08:11:19.630Z,54.90
2018-12-06T08:13:48.641Z,55.00
2018-12-06T08:16:18.671Z,54.80
2018-12-06T08:18:49.096Z,54.30
2018-12-06T08:21:18.140Z,54.70
2018-12-06T08:23:48.243Z,53.90
2018-12-06T08:26:17.631Z,54.20
2018-12-06T08:28:46.651Z,54.00
2018-12-06T08:31:16.513Z,53.50
2018-12-06T08:33:47.152Z,52.70
2018-12-06T08:36:16.583Z,53.70
2018-12-06T08:38:45.598Z,53.70
2018-12-06T08:41:15.121Z,53.30
2018-12-06T08:43:45.126Z,52.50
2018-12-06T08:46:14.582Z,52.60
2018-12-06T08:48:44.006Z,52.60
2018-12-06T08:51:13.768Z,52.60
2018-12-06T08:53:42.832Z,52.60
2018-12-06T08:56:12.739Z,52.30
2018-12-06T08:58:41.795Z,52.20
2018-12-06T09:01:10.811Z,52.50
2018-12-06T09:03:40.704Z,52.70
2018-12-06T09:06:11.033Z,52.00
2018-12-06T09:08:40.080Z,51.80
2018-12-06T09:11:09.120Z,51.70
2018-12-06T09:16:37.092Z,51.30
2018-12-06T09:19:06.379Z,51.40
2018-12-06T09:21:35.935Z,51.20
2018-12-06T09:24:05.376Z,51.20
2018-12-06T09:26:34.919Z,51.00
2018-12-06T09:29:03.951Z,50.80
2018-12-06T09:31:36.420Z,50.80
2018-12-06T09:34:06.464Z,50.30
2018-12-06T09:36:37.391Z,50.60
2018-12-06T09:39:07.418Z,50.30
2018-12-06T09:41:36.600Z,50.60
2018-12-06T09:44:05.651Z,49.50
2018-12-06T09:46:34.706Z,50.40
2018-12-06T09:49:04.155Z,50.90
2018-12-06T09:51:33.545Z,51.50
2018-12-06T09:54:02.598Z,51.40
2018-12-06T09:56:32.105Z,51.00
2018-12-06T09:59:01.555Z,50.60
2018-12-06T10:01:30.761Z,50.80
2018-12-06T10:04:00.936Z,50.90
2018-12-06T10:06:30.107Z,51.40
2018-12-06T10:08:59.946Z,51.30
2018-12-06T10:11:29.405Z,51.30
2018-12-06T10:13:59.556Z,52.00
2018-12-06T10:16:29.064Z,52.50
2018-12-06T10:18:58.665Z,51.80
2018-12-06T10:21:28.530Z,52.20
2018-12-06T10:23:57.612Z,51.90
2018-12-06T10:26:26.619Z,52.20
2018-12-06T10:28:56.532Z,52.40
2018-12-06T10:31:28.385Z,51.80
2018-12-06T10:34:01.006Z,51.30
2018-12-06T10:36:30.064Z,51.30
2018-12-06T10:38:59.570Z,50.80
2018-12-06T10:41:28.636Z,51.60
2018-12-06T10:43:57.938Z,51.70
2018-12-06T10:46:27.503Z,51.60
2018-12-06T10:48:56.562Z,51.60
2018-12-06T10:51:41.136Z,51.50
2018-12-06T10:54:10.947Z,52.40
2018-12-06T10:56:40.581Z,52.90
2018-12-06T10:59:09.808Z,52.60
2018-12-06T11:01:44.448Z,52.50
2018-12-06T11:04:15.427Z,53.10
2018-12-06T11:06:45.524Z,53.40
2018-12-06T11:09:15.066Z,53.50
2018-12-06T11:11:44.163Z,52.90
2018-12-06T11:14:13.223Z,53.00
2018-12-06T11:16:42.255Z,52.80
2018-12-06T11:19:11.658Z,53.00
2018-12-06T11:21:41.042Z,52.90
2018-12-06T11:24:10.458Z,53.10
2018-12-06T11:26:40.089Z,52.80
2018-12-06T11:29:09.094Z,52.50
2018-12-06T11:31:38.792Z,52.50
2018-12-06T11:34:07.831Z,52.60
2018-12-06T11:36:38.075Z,53.10
2018-12-06T11:39:08.530Z,53.40
2018-12-06T11:41:42.935Z,52.50
2018-12-06T11:44:10.521Z,52.70
2018-12-06T11:46:39.535Z,52.20
2018-12-06T11:49:09.624Z,52.50
2018-12-06T11:51:38.673Z,51.90
2018-12-06T11:54:09.147Z,52.10
2018-12-06T11:56:38.270Z,52.50
2018-12-06T11:59:08.977Z,52.50
2018-12-06T12:01:39.048Z,52.40
2018-12-06T12:04:08.065Z,52.70
2018-12-06T12:06:38.661Z,53.10
2018-12-06T12:09:08.255Z,53.40
2018-12-06T12:11:37.696Z,53.10
2018-12-06T12:14:06.822Z,53.30
2018-12-06T12:16:37.029Z,54.10
2018-12-06T12:19:06.114Z,54.30
2018-12-06T12:21:35.483Z,54.10
2018-12-06T12:24:04.653Z,55.00
2018-12-06T12:26:34.384Z,55.20
2018-12-06T12:29:03.432Z,55.20
2018-12-06T12:31:33.005Z,56.20
2018-12-06T12:34:02.511Z,56.80
2018-12-06T12:36:32.412Z,56.60
2018-12-06T12:39:02.329Z,56.60
2018-12-06T12:41:32.543Z,56.60
2018-12-06T12:44:02.871Z,57.00
2018-12-06T12:46:32.741Z,57.10
2018-12-06T12:49:02.492Z,56.70
2018-12-06T12:51:31.645Z,56.30
2018-12-06T12:54:00.858Z,56.40
2018-12-06T12:56:29.892Z,56.20
2018-12-06T12:58:59.016Z,57.10
2018-12-06T13:01:28.037Z,56.90
2018-12-06T13:03:57.175Z,57.10
2018-12-06T13:06:26.820Z,57.40
2018-12-06T13:08:56.274Z,57.60
2018-12-06T13:11:25.658Z,57.20
2018-12-06T13:13:54.874Z,57.50
2018-12-06T13:16:23.919Z,57.70
2018-12-06T13:18:53.555Z,57.50
2018-12-06T13:21:23.664Z,57.70
2018-12-06T13:23:53.451Z,58.10
2018-12-06T13:26:23.260Z,58.30
2018-12-06T13:28:52.967Z,58.90
2018-12-06T13:31:22.029Z,58.90
2018-12-06T13:33:51.855Z,58.90
2018-12-06T13:36:21.035Z,59.30
2018-12-06T13:38:50.212Z,59.60
2018-12-06T13:41:19.269Z,59.80
2018-12-06T13:43:48.936Z,60.20
2018-12-06T13:46:19.003Z,60.20
2018-12-06T13:48:48.853Z,60.60
2018-12-06T13:51:17.944Z,61.30
2018-12-06T13:53:47.794Z,61.70
2018-12-06T13:56:17.319Z,62.10
2018-12-06T13:58:46.391Z,62.10
2018-12-06T14:01:15.814Z,63.30
2018-12-06T14:03:45.146Z,63.70
2018-12-06T14:06:14.630Z,63.70
2018-12-06T14:08:44.431Z,64.00
2018-12-06T14:11:14.429Z,64.00
2018-12-06T14:13:44.235Z,64.40
2018-12-06T14:16:13.887Z,65.20
2018-12-06T14:18:43.187Z,66.30
2018-12-06T14:21:12.260Z,67.10
2018-12-06T14:23:41.411Z,68.60
2018-12-06T14:26:14.189Z,68.50
2018-12-06T14:28:43.223Z,68.50
2018-12-06T14:31:13.410Z,69.50
2018-12-06T14:33:42.913Z,69.30
2018-12-06T14:36:12.671Z,68.60
2018-12-06T14:38:42.965Z,68.50
2018-12-06T14:41:12.698Z,68.60
2018-12-06T14:43:42.929Z,68.30
2018-12-06T14:46:12.416Z,68.00
2018-12-06T14:48:42.046Z,68.50
2018-12-06T14:51:11.572Z,67.10
2018-12-06T14:53:41.248Z,67.10
2018-12-06T14:56:10.872Z,66.90
2018-12-06T14:58:39.923Z,67.20
2018-12-06T15:01:09.277Z,67.40
2018-12-06T15:03:39.092Z,68.30
2018-12-06T15:06:08.577Z,68.50
2018-12-06T15:08:40.151Z,68.20
2018-12-06T15:11:09.228Z,68.50
2018-12-06T15:13:38.274Z,68.50
2018-12-06T15:16:07.335Z,68.60
2018-12-06T15:18:36.414Z,68.60
2018-12-06T15:21:05.435Z,68.50
2018-12-06T15:23:36.506Z,68.60
2018-12-06T15:26:06.052Z,68.60
2018-12-06T15:28:35.122Z,69.10
2018-12-06T15:31:04.855Z,69.90
2018-12-06T15:33:34.888Z,70.00
2018-12-06T15:36:04.520Z,70.80
2018-12-06T15:38:33.568Z,71.50
2018-12-06T15:41:03.002Z,71.40
2018-12-06T15:43:32.514Z,73.10
2018-12-06T15:46:01.791Z,73.70
2018-12-06T15:48:31.403Z,74.20
2018-12-06T15:51:01.268Z,75.10
2018-12-06T15:53:30.914Z,74.70
2018-12-06T15:56:00.405Z,75.20
2018-12-06T15:58:29.484Z,75.90
2018-12-06T16:00:59.175Z,77.40
2018-12-06T16:03:28.264Z,78.30
2018-12-06T16:05:57.358Z,80.30
2018-12-06T16:08:26.752Z,81.40
2018-12-06T16:10:57.353Z,84.70
2018-12-06T16:13:26.814Z,85.90
2018-12-06T16:15:56.157Z,87.40
2018-12-06T16:18:25.940Z,89.10
2018-12-06T16:20:55.870Z,90.40
2018-12-06T16:23:24.920Z,91.20
2018-12-06T16:25:54.371Z,92.00
2018-12-06T16:28:23.499Z,92.70
2018-12-06T16:30:52.556Z,93.00
2018-12-06T16:33:22.260Z,93.50
2018-12-06T16:35:52.051Z,93.80
2018-12-06T16:38:21.717Z,94.90
2018-12-06T16:40:50.771Z,95.30
2018-12-06T16:43:21.232Z,95.50
2018-12-06T16:45:51.748Z,95.50
2018-12-06T16:48:20.818Z,95.90
2018-12-06T16:50:49.884Z,96.40
2018-12-06T16:53:18.911Z,96.30
2018-12-06T16:55:48.274Z,96.60
2018-12-06T16:58:17.568Z,96.60
2018-12-06T17:00:47.255Z,96.60
2018-12-06T17:03:16.307Z,96.60
2018-12-06T17:05:45.847Z,96.70
2018-12-06T17:08:14.952Z,96.80
2018-12-06T17:10:44.255Z,96.70
2018-12-06T17:13:13.320Z,96.90
2018-12-06T17:15:42.375Z,97.20
2018-12-06T17:18:11.756Z,97.30
2018-12-06T17:20:41.410Z,97.50
2018-12-06T17:23:10.501Z,97.40
2018-12-06T17:25:39.548Z,97.40
2018-12-06T17:28:08.915Z,97.60
2018-12-06T17:30:38.669Z,97.40
2018-12-06T17:33:08.355Z,97.40
2018-12-06T17:35:38.943Z,97.60
2018-12-06T17:38:08.091Z,97.60
2018-12-06T17:40:37.646Z,97.70
2018-12-06T17:43:06.806Z,97.80
2018-12-06T17:45:36.631Z,97.60
2018-12-06T17:48:05.961Z,97.70
2018-12-06T17:50:35.875Z,97.70
2018-12-06T17:53:04.966Z,97.60
2018-12-06T17:55:34.497Z,97.60
2018-12-06T17:58:04.496Z,97.50
2018-12-06T18:00:33.519Z,97.30
2018-12-06T18:03:03.202Z,97.30
2018-12-06T18:05:33.047Z,97.40
2018-12-06T18:08:03.066Z,97.40
2018-12-06T18:10:32.756Z,97.30
2018-12-06T18:13:01.871Z,97.20
2018-12-06T18:15:31.607Z,97.30
2018-12-06T18:18:00.684Z,97.10
2018-12-06T18:20:32.325Z,97.20
2018-12-06T18:23:01.825Z,96.90
2018-12-06T18:25:30.856Z,97.20
2018-12-06T18:28:00.911Z,97.20
2018-12-06T18:30:29.939Z,97.10
2018-12-06T18:32:59.552Z,97.50
2018-12-06T18:35:28.599Z,97.40
2018-12-06T18:37:57.664Z,97.40
2018-12-06T18:40:27.136Z,97.50
2018-12-06T18:42:56.980Z,97.30
2018-12-06T18:45:26.056Z,97.00
2018-12-06T18:47:55.444Z,97.00
2018-12-06T18:50:25.053Z,97.00
2018-12-06T18:52:54.087Z,97.00
2018-12-06T18:55:23.139Z,97.00
2018-12-06T18:57:52.777Z,97.00
2018-12-06T19:00:22.228Z,97.10
2018-12-06T19:02:52.120Z,97.10
2018-12-06T19:05:21.150Z,97.00
2018-12-06T19:07:51.100Z,97.10
2018-12-06T19:10:20.432Z,97.10
2018-12-06T19:12:49.518Z,97.10
2018-12-06T19:15:19.010Z,97.10
2018-12-06T19:17:48.491Z,97.10
2018-12-06T19:20:18.380Z,97.10
2018-12-06T19:22:47.507Z,97.10
2018-12-06T19:25:17.119Z,97.10
2018-12-06T19:27:46.822Z,97.30
2018-12-06T19:30:15.853Z,97.40
2018-12-06T19:32:45.328Z,97.20
2018-12-06T19:35:14.789Z,97.20
2018-12-06T19:37:44.039Z,97.30
2018-12-06T19:40:13.120Z,97.40
2018-12-06T19:42:43.618Z,97.30
2018-12-06T19:45:13.207Z,97.70
2018-12-06T19:47:42.250Z,97.40
2018-12-06T19:50:12.903Z,97.40
2018-12-06T19:52:42.851Z,97.40
2018-12-06T19:55:11.939Z,97.30
2018-12-06T19:58:19.660Z,97.20
2018-12-06T20:00:49.155Z,97.20
2018-12-06T20:03:18.492Z,97.20
2018-12-06T20:05:48.854Z,97.20
2018-12-06T20:08:17.944Z,97.20
2018-12-06T20:10:47.558Z,97.10
2018-12-06T20:13:17.111Z,97.30
2018-12-06T20:15:46.186Z,97.30
2018-12-06T20:18:16.261Z,97.20
2018-12-06T20:20:45.298Z,97.20
2018-12-06T20:23:14.361Z,97.00
2018-12-06T20:25:43.426Z,97.30
2018-12-06T20:28:12.502Z,97.10
2018-12-06T20:30:45.019Z,97.30
2018-12-06T20:33:14.304Z,97.30
2018-12-06T20:35:43.763Z,97.00
2018-12-06T20:38:13.203Z,96.80
2018-12-06T20:40:43.169Z,97.00
2018-12-06T20:43:12.911Z,96.80
2018-12-06T20:45:42.262Z,96.70
2018-12-06T20:48:11.372Z,96.80
2018-12-06T20:50:41.099Z,97.00
2018-12-06T20:53:11.304Z,97.10
2018-12-06T20:55:42.148Z,97.40
2018-12-06T20:58:15.203Z,97.30
2018-12-06T21:00:42.908Z,97.70
2018-12-06T21:03:13.515Z,97.70
2018-12-06T21:05:43.108Z,97.90
2018-12-06T21:08:12.224Z,97.90
2018-12-06T21:10:41.915Z,97.80
2018-12-06T21:13:11.740Z,97.90
2018-12-06T21:15:41.589Z,97.70
2018-12-06T21:18:11.039Z,97.40
2018-12-06T21:20:40.988Z,97.40
2018-12-06T21:23:10.572Z,97.40
2018-12-06T21:25:39.607Z,97.40
2018-12-06T21:28:09.317Z,97.40
2018-12-06T21:30:38.528Z,97.40
2018-12-06T21:33:08.260Z,97.40
2018-12-06T21:35:37.345Z,97.40
2018-12-06T21:38:07.431Z,97.30
2018-12-06T21:40:37.296Z,97.30
2018-12-06T21:43:06.327Z,97.60
2018-12-06T21:45:35.962Z,97.30
2018-12-06T21:48:05.620Z,97.40
2018-12-06T21:50:35.490Z,97.40
2018-12-06T21:53:04.743Z,97.30
2018-12-06T21:55:35.044Z,97.30
2018-12-06T21:58:04.544Z,97.30
2018-12-06T22:00:33.575Z,97.40
2018-12-06T22:03:02.650Z,97.40
2018-12-06T22:05:32.254Z,97.60
2018-12-06T22:08:01.311Z,97.30
2018-12-06T22:10:30.688Z,97.30
2018-12-06T22:13:01.288Z,97.40
2018-12-06T22:15:30.708Z,97.40
2018-12-06T22:17:59.788Z,97.40
2018-12-06T22:20:30.436Z,97.40
2018-12-06T22:23:01.168Z,97.40
2018-12-06T22:25:31.175Z,97.40
2018-12-06T22:28:01.026Z,97.40
2018-12-06T22:30:31.185Z,97.40
2018-12-06T22:33:00.692Z,97.40
2018-12-06T22:35:31.472Z,97.40
2018-12-06T22:38:01.568Z,97.40
2018-12-06T22:40:31.443Z,97.30
2018-12-06T22:43:01.388Z,97.40
2018-12-06T22:45:54.511Z,97.40
2018-12-06T22:48:24.820Z,97.40
2018-12-06T22:50:54.267Z,97.50
2018-12-06T22:53:23.756Z,97.40
2018-12-06T22:55:53.698Z,97.40
2018-12-06T22:58:22.812Z,97.30
2018-12-06T23:00:52.514Z,97.30
2018-12-06T23:03:22.493Z,97.00
2018-12-06T23:05:51.736Z,96.90
2018-12-06T23:08:21.234Z,96.90
2018-12-06T23:10:50.314Z,96.60
2018-12-06T23:13:20.556Z,96.40
2018-12-06T23:15:50.660Z,96.20
2018-12-06T23:18:19.711Z,96.20
2018-12-06T23:20:50.278Z,95.90
2018-12-06T23:23:20.247Z,96.00
2018-12-06T23:25:49.286Z,96.00
2018-12-06T23:28:18.328Z,96.00
2018-12-06T23:30:47.486Z,96.30
2018-12-06T23:33:16.926Z,96.20
2018-12-06T23:35:46.855Z,96.20
2018-12-06T23:38:16.663Z,96.20
2018-12-06T23:40:46.024Z,96.00
2018-12-06T23:43:16.265Z,95.70
2018-12-06T23:45:46.103Z,95.70
2018-12-06T23:48:15.559Z,95.70
2018-12-06T23:50:45.028Z,95.50
2018-12-06T23:53:14.130Z,95.50
2018-12-06T23:55:44.233Z,95.50
2018-12-06T23:58:13.439Z,95.70
